Time;durP1;ratioP1;P1;durP2;ratioP2;P2;SDS_P1;SDS_P2;PMS_P1;PMS_P2;Temp;Humidity;BMP_temperature;BMP_pressure;BME280_temperature;BME280_humidity;BME280_pressure;Samples;Min_cycle;Max_cycle;Signal;HPM_P1;HPM_P2
2021/05/28 00:01:59;;;;;;;1.87;1.50;;;;;;;;;;5046663;28;20192;-65
2021/05/28 00:04:26;;;;;;;0.90;0.27;;;;;;;;;;5048227;28;20277;-66
2021/05/28 00:06:52;;;;;;;0.50;0.10;;;;;;;;;;5040601;28;20286;-66
2021/05/28 00:09:19;;;;;;;0.00;0.00;;;;;;;;;;5041684;28;20186;-67
2021/05/28 00:11:46;;;;;;;0.00;0.00;;;;;;;;;;5039153;28;20216;-67
2021/05/28 00:14:13;;;;;;;0.00;0.00;;;;;;;;;;5044401;28;20300;-66
2021/05/28 00:16:40;;;;;;;1.60;0.60;;;;;;;;;;5036920;28;20709;-66
2021/05/28 00:19:06;;;;;;;0.63;0.63;;;;;;;;;;5030761;28;20304;-66
2021/05/28 00:21:34;;;;;;;0.27;0.27;;;;;;;;;;5038325;28;20192;-66
2021/05/28 00:24:00;;;;;;;0.53;0.53;;;;;;;;;;5030303;28;20925;-67
2021/05/28 00:26:29;;;;;;;0.63;0.63;;;;;;;;;;5026120;28;20278;-66
2021/05/28 00:28:55;;;;;;;4.63;1.07;;;;;;;;;;5024862;28;20196;-66
2021/05/28 00:31:23;;;;;;;0.10;0.10;;;;;;;;;;5020305;28;20228;-66
2021/05/28 00:33:50;;;;;;;2.00;1.03;;;;;;;;;;5023094;28;20330;-66
2021/05/28 00:36:17;;;;;;;0.40;0.40;;;;;;;;;;5019021;28;20188;-66
2021/05/28 00:38:44;;;;;;;0.60;0.60;;;;;;;;;;5019638;28;20706;-67
2021/05/28 00:41:11;;;;;;;0.00;0.00;;;;;;;;;;5015323;28;20245;-66
2021/05/28 00:43:37;;;;;;;10.70;1.33;;;;;;;;;;5019031;28;20192;-66
2021/05/28 00:46:04;;;;;;;0.10;0.10;;;;;;;;;;5021216;28;20198;-66
2021/05/28 00:48:31;;;;;;;0.53;0.43;;;;;;;;;;5026145;28;20204;-66
2021/05/28 00:50:57;;;;;;;1.30;0.30;;;;;;;;;;5021038;28;20218;-67
2021/05/28 00:53:25;;;;;;;1.40;0.57;;;;;;;;;;5021192;28;20195;-66
2021/05/28 00:55:52;;;;;;;0.57;0.57;;;;;;;;;;5023474;28;20192;-67
2021/05/28 00:58:21;;;;;;;0.10;0.10;;;;;;;;;;5024325;28;20193;-68
2021/05/28 01:00:51;;;;;;;0.23;0.20;;;;;;;;;;5019141;28;20187;-66
2021/05/28 01:03:19;;;;;;;0.40;0.40;;;;;;;;;;5015484;28;20200;-66
2021/05/28 01:05:47;;;;;;;0.00;0.00;;;;;;;;;;5020738;28;20196;-72
2021/05/28 01:08:14;;;;;;;0.67;0.67;;;;;;;;;;5038621;28;20302;-68
2021/05/28 01:10:40;;;;;;;0.20;0.20;;;;;;;;;;5026789;28;21040;-70
2021/05/28 01:13:19;;;;;;;0.00;0.00;;;;;;;;;;5019042;28;20204;-66
2021/05/28 01:15:46;;;;;;;0.00;0.00;;;;;;;;;;5026754;28;20219;-67
2021/05/28 01:18:12;;;;;;;0.00;0.00;;;;;;;;;;5024452;28;20262;-67
2021/05/28 01:20:39;;;;;;;3.30;2.83;;;;;;;;;;5023031;28;20222;-67
2021/05/28 01:23:06;;;;;;;0.20;0.20;;;;;;;;;;5022150;28;20282;-66
2021/05/28 01:25:34;;;;;;;0.57;0.57;;;;;;;;;;5022527;28;20199;-67
2021/05/28 01:28:02;;;;;;;0.00;0.00;;;;;;;;;;5019306;28;20447;-68
2021/05/28 01:30:28;;;;;;;2.53;2.43;;;;;;;;;;5016122;28;20327;-68
2021/05/28 01:32:55;;;;;;;0.63;0.63;;;;;;;;;;5021443;28;20187;-67
2021/05/28 01:35:23;;;;;;;0.00;0.00;;;;;;;;;;5016975;28;20185;-68
2021/05/28 01:37:50;;;;;;;0.00;0.00;;;;;;;;;;5019240;28;20197;-70
2021/05/28 01:40:18;;;;;;;0.00;0.00;;;;;;;;;;5015525;28;20866;-66
2021/05/28 01:42:45;;;;;;;1.50;0.63;;;;;;;;;;5017690;28;20184;-66
2021/05/28 01:45:12;;;;;;;0.23;0.23;;;;;;;;;;5017446;28;20437;-66
2021/05/28 01:47:39;;;;;;;0.67;0.50;;;;;;;;;;5018855;28;20203;-66
2021/05/28 01:50:07;;;;;;;0.00;0.00;;;;;;;;;;5016998;28;20498;-74
2021/05/28 01:52:33;;;;;;;0.00;0.00;;;;;;;;;;5014669;28;20718;-72
2021/05/28 01:55:00;;;;;;;0.00;0.00;;;;;;;;;;5016648;28;20185;-70
2021/05/28 01:57:26;;;;;;;0.13;0.13;;;;;;;;;;5018496;28;20180;-74
2021/05/28 01:59:53;;;;;;;0.00;0.00;;;;;;;;;;5018214;28;20184;-67
2021/05/28 02:02:20;;;;;;;0.20;0.20;;;;;;;;;;5022840;28;20570;-69
2021/05/28 02:04:47;;;;;;;0.00;0.00;;;;;;;;;;5017155;28;20180;-74
2021/05/28 02:07:13;;;;;;;0.30;0.30;;;;;;;;;;5018886;28;20266;-69
2021/05/28 02:09:40;;;;;;;1.47;0.93;;;;;;;;;;5023150;28;20184;-73
2021/05/28 02:12:06;;;;;;;0.83;0.60;;;;;;;;;;5022978;28;20224;-72
2021/05/28 02:14:34;;;;;;;0.73;0.73;;;;;;;;;;5018032;28;20191;-72
2021/05/28 02:17:01;;;;;;;0.00;0.00;;;;;;;;;;5015742;28;20192;-73
2021/05/28 02:19:27;;;;;;;0.00;0.00;;;;;;;;;;5011697;28;20552;-72
2021/05/28 02:21:54;;;;;;;0.27;0.27;;;;;;;;;;5019280;28;20851;-71
2021/05/28 02:24:22;;;;;;;0.00;0.00;;;;;;;;;;5014017;28;20193;-71
2021/05/28 02:26:52;;;;;;;0.60;0.60;;;;;;;;;;5012428;28;20203;-72
2021/05/28 02:29:19;;;;;;;0.00;0.00;;;;;;;;;;5018420;28;20181;-73
2021/05/28 02:31:45;;;;;;;0.00;0.00;;;;;;;;;;5031085;28;20228;-72
2021/05/28 02:34:14;;;;;;;0.00;0.00;;;;;;;;;;5018749;28;20192;-71
2021/05/28 02:36:41;;;;;;;0.13;0.13;;;;;;;;;;5016799;28;20219;-70
2021/05/28 02:39:08;;;;;;;1.00;0.70;;;;;;;;;;5020006;28;20237;-70
2021/05/28 02:41:36;;;;;;;0.33;0.33;;;;;;;;;;5028127;28;20188;-68
2021/05/28 02:44:04;;;;;;;0.00;0.00;;;;;;;;;;5013979;28;20590;-70
2021/05/28 02:46:31;;;;;;;0.30;0.30;;;;;;;;;;5016883;28;20198;-72
2021/05/28 02:48:57;;;;;;;0.00;0.00;;;;;;;;;;5019882;28;20181;-75
2021/05/28 02:51:24;;;;;;;0.00;0.00;;;;;;;;;;5021171;28;20211;-71
2021/05/28 02:53:51;;;;;;;0.93;0.93;;;;;;;;;;5020931;28;20184;-73
2021/05/28 02:56:17;;;;;;;2.33;2.17;;;;;;;;;;5019537;28;20208;-75
2021/05/28 02:58:45;;;;;;;0.27;0.27;;;;;;;;;;5022608;28;20184;-75
2021/05/28 03:01:12;;;;;;;0.77;0.77;;;;;;;;;;5022041;28;20214;-73
2021/05/28 03:03:38;;;;;;;0.10;0.10;;;;;;;;;;5020525;28;20188;-71
2021/05/28 03:06:05;;;;;;;0.97;0.57;;;;;;;;;;5019766;28;20204;-72
2021/05/28 03:08:32;;;;;;;0.07;0.07;;;;;;;;;;5020860;28;20279;-69
2021/05/28 03:10:58;;;;;;;0.00;0.00;;;;;;;;;;5016941;28;20540;-72
2021/05/28 03:13:25;;;;;;;0.00;0.00;;;;;;;;;;5009062;28;20272;-72
2021/05/28 03:15:52;;;;;;;7.63;5.63;;;;;;;;;;5011981;28;20787;-70
2021/05/28 03:18:21;;;;;;;0.00;0.00;;;;;;;;;;5021425;28;20222;-69
2021/05/28 03:20:50;;;;;;;0.40;0.40;;;;;;;;;;5015763;28;20223;-72
2021/05/28 03:23:19;;;;;;;3.40;1.33;;;;;;;;;;5020578;28;20184;-72
2021/05/28 03:25:45;;;;;;;0.30;0.30;;;;;;;;;;5013157;28;21240;-74
2021/05/28 03:28:12;;;;;;;0.63;0.20;;;;;;;;;;5010146;28;20180;-67
2021/05/28 03:30:38;;;;;;;0.07;0.07;;;;;;;;;;5013125;28;20231;-68
2021/05/28 03:33:06;;;;;;;0.83;0.40;;;;;;;;;;5018601;28;20270;-68
2021/05/28 03:35:32;;;;;;;0.00;0.00;;;;;;;;;;5019236;28;20558;-66
2021/05/28 03:37:59;;;;;;;0.10;0.10;;;;;;;;;;5019097;28;20183;-73
2021/05/28 03:40:26;;;;;;;0.53;0.17;;;;;;;;;;5017811;28;20699;-69
2021/05/28 03:42:52;;;;;;;0.00;0.00;;;;;;;;;;5021605;28;20208;-69
2021/05/28 03:45:19;;;;;;;0.10;0.10;;;;;;;;;;5015970;28;20187;-68
2021/05/28 03:47:45;;;;;;;0.20;0.20;;;;;;;;;;5018455;28;20757;-71
2021/05/28 03:50:12;;;;;;;0.47;0.47;;;;;;;;;;5018492;28;20271;-71
2021/05/28 03:52:39;;;;;;;0.00;0.00;;;;;;;;;;5019960;28;20177;-69
2021/05/28 03:55:06;;;;;;;0.10;0.10;;;;;;;;;;5015567;28;20188;-72
2021/05/28 03:57:32;;;;;;;0.00;0.00;;;;;;;;;;5012071;28;20531;-73
2021/05/28 03:59:59;;;;;;;0.47;0.47;;;;;;;;;;5009357;28;20184;-69
2021/05/28 04:02:25;;;;;;;0.00;0.00;;;;;;;;;;5017615;28;20560;-70
2021/05/28 04:04:52;;;;;;;0.60;0.60;;;;;;;;;;5017115;28;20192;-75
2021/05/28 15:04:46;;;;;;;0.20;0.20;;;;;;;;;;5097704;27;20572;-62
2021/05/28 15:07:13;;;;;;;1.90;0.63;;;;;;;;;;5097298;28;20420;-63
2021/05/28 15:09:39;;;;;;;2.93;2.37;;;;;;;;;;5097606;28;20169;-62
2021/05/28 15:12:06;;;;;;;0.00;0.00;;;;;;;;;;5097291;28;20814;-63
2021/05/28 15:14:33;;;;;;;0.30;0.30;;;;;;;;;;5097263;28;20290;-63
2021/05/28 15:16:59;;;;;;;7.47;1.50;;;;;;;;;;5097024;28;20189;-62
2021/05/28 15:19:28;;;;;;;0.00;0.00;;;;;;;;;;5099799;28;20264;-63
2021/05/28 15:21:55;;;;;;;15.27;1.23;;;;;;;;;;5096957;28;20170;-63
2021/05/28 15:24:25;;;;;;;0.10;0.10;;;;;;;;;;5097138;28;20204;-63
2021/05/28 15:26:52;;;;;;;0.10;0.10;;;;;;;;;;5097227;28;20177;-63
2021/05/28 15:29:18;;;;;;;0.60;0.60;;;;;;;;;;5097406;28;20164;-63
2021/05/28 15:31:48;;;;;;;0.13;0.13;;;;;;;;;;5096974;28;20635;-63
2021/05/28 15:34:14;;;;;;;1.57;0.87;;;;;;;;;;5099862;28;20189;-63
2021/05/28 15:36:41;;;;;;;4.70;0.40;;;;;;;;;;5097300;28;20165;-63
2021/05/28 15:39:07;;;;;;;0.40;0.30;;;;;;;;;;5097020;28;20166;-63
2021/05/28 15:41:35;;;;;;;0.33;0.33;;;;;;;;;;5101567;28;20223;-63
2021/05/28 15:44:01;;;;;;;0.03;0.03;;;;;;;;;;5096581;28;21046;-63
2021/05/28 15:46:28;;;;;;;6.20;1.00;;;;;;;;;;5096868;28;20295;-63
2021/05/28 15:48:55;;;;;;;6.83;1.10;;;;;;;;;;5096687;28;20170;-62
2021/05/28 15:51:22;;;;;;;0.63;0.63;;;;;;;;;;5096405;28;20193;-63
2021/05/28 15:53:48;;;;;;;0.30;0.10;;;;;;;;;;5096712;28;20177;-63
2021/05/28 15:56:15;;;;;;;0.00;0.00;;;;;;;;;;5099142;28;20166;-63
2021/05/28 15:58:41;;;;;;;4.70;2.00;;;;;;;;;;5096385;28;20612;-63
2021/05/28 16:01:09;;;;;;;74.53;1.87;;;;;;;;;;5096383;28;20166;-63
2021/05/28 16:03:35;;;;;;;0.57;0.57;;;;;;;;;;5095889;28;20221;-63
2021/05/28 16:06:02;;;;;;;2.57;1.37;;;;;;;;;;5096038;28;20718;-63
2021/05/28 16:08:29;;;;;;;0.70;0.70;;;;;;;;;;5096371;28;20304;-63
2021/05/28 16:10:56;;;;;;;0.10;0.10;;;;;;;;;;5096643;28;20158;-63
2021/05/28 16:13:23;;;;;;;0.30;0.30;;;;;;;;;;5096356;28;20170;-63
2021/05/28 16:15:50;;;;;;;0.97;0.83;;;;;;;;;;5084218;28;20163;-62
2021/05/28 16:18:16;;;;;;;2.27;1.50;;;;;;;;;;5082494;28;20171;-63
2021/05/28 16:20:45;;;;;;;0.63;0.40;;;;;;;;;;5082348;28;20162;-63
2021/05/28 16:23:11;;;;;;;0.00;0.00;;;;;;;;;;5082609;28;20853;-63
2021/05/28 16:25:38;;;;;;;10.27;1.43;;;;;;;;;;5082083;28;20163;-63
2021/05/28 16:28:05;;;;;;;0.63;0.50;;;;;;;;;;5082535;28;20251;-63
2021/05/28 16:30:36;;;;;;;10.00;1.93;;;;;;;;;;5082039;28;20185;-63
2021/05/28 16:33:03;;;;;;;4.53;1.03;;;;;;;;;;5081923;28;20232;-63
2021/05/28 16:35:30;;;;;;;2.43;0.40;;;;;;;;;;5082084;28;20199;-63
2021/05/28 16:37:56;;;;;;;0.17;0.17;;;;;;;;;;5084170;28;20933;-63
2021/05/28 16:40:23;;;;;;;2.53;0.50;;;;;;;;;;5081947;28;20275;-63
2021/05/28 16:42:50;;;;;;;4.43;0.63;;;;;;;;;;5081496;28;20199;-63
2021/05/28 16:45:16;;;;;;;0.00;0.00;;;;;;;;;;5081637;28;20625;-63
2021/05/28 16:47:43;;;;;;;0.00;0.00;;;;;;;;;;5081810;28;20237;-63
2021/05/28 16:50:10;;;;;;;0.00;0.00;;;;;;;;;;5084022;28;20769;-63
2021/05/28 16:52:36;;;;;;;6.47;1.17;;;;;;;;;;5081439;28;20161;-63
2021/05/28 16:55:04;;;;;;;0.00;0.00;;;;;;;;;;5081440;28;20822;-63
2021/05/28 16:57:31;;;;;;;0.00;0.00;;;;;;;;;;5081416;28;20221;-63
2021/05/28 16:59:57;;;;;;;0.83;0.37;;;;;;;;;;5081277;28;20780;-63
2021/05/28 17:02:24;;;;;;;0.30;0.30;;;;;;;;;;5081169;28;20274;-63
2021/05/28 17:04:50;;;;;;;1.10;1.00;;;;;;;;;;5081134;28;20722;-63
2021/05/28 17:07:18;;;;;;;3.20;1.73;;;;;;;;;;5081433;28;20161;-63
2021/05/28 17:09:45;;;;;;;1.07;0.17;;;;;;;;;;5081282;28;20238;-63
2021/05/28 17:12:11;;;;;;;0.10;0.10;;;;;;;;;;5081103;28;20155;-63
2021/05/28 17:14:38;;;;;;;18.97;15.00;;;;;;;;;;5081210;28;20170;-62
2021/05/28 17:17:04;;;;;;;22.37;1.90;;;;;;;;;;5081051;28;20253;-63
2021/05/28 17:19:31;;;;;;;0.00;0.00;;;;;;;;;;5080851;28;20223;-63
2021/05/28 17:21:58;;;;;;;6.03;1.60;;;;;;;;;;5080876;28;20190;-63
2021/05/28 17:24:24;;;;;;;0.00;0.00;;;;;;;;;;5080830;28;20187;-63
2021/05/28 17:26:52;;;;;;;2.03;1.50;;;;;;;;;;5082389;28;20161;-63
2021/05/28 17:29:19;;;;;;;12.07;4.20;;;;;;;;;;5080899;28;20220;-62
2021/05/28 17:31:45;;;;;;;14.30;5.13;;;;;;;;;;5083479;28;20174;-62
2021/05/28 17:34:12;;;;;;;0.00;0.00;;;;;;;;;;5080517;28;20173;-62
2021/05/28 17:36:40;;;;;;;3.30;1.27;;;;;;;;;;5080922;28;20166;-62
2021/05/28 17:39:12;;;;;;;0.13;0.07;;;;;;;;;;5080930;28;20659;-62
2021/05/28 17:41:42;;;;;;;0.90;0.40;;;;;;;;;;5080591;28;20623;-62
2021/05/28 17:44:09;;;;;;;2.87;2.67;;;;;;;;;;5083263;28;20194;-62
2021/05/28 17:46:36;;;;;;;4.70;1.17;;;;;;;;;;5083002;28;20197;-62
2021/05/28 17:49:03;;;;;;;0.20;0.20;;;;;;;;;;5080438;28;20683;-62
2021/05/28 17:51:30;;;;;;;0.00;0.00;;;;;;;;;;5080337;28;20173;-62
2021/05/28 17:53:59;;;;;;;0.00;0.00;;;;;;;;;;5080467;28;20167;-62
2021/05/28 17:56:26;;;;;;;2.33;0.63;;;;;;;;;;5080297;28;20204;-62
2021/05/28 17:58:52;;;;;;;1.40;0.40;;;;;;;;;;5080191;28;20589;-62
2021/05/28 18:01:19;;;;;;;0.47;0.47;;;;;;;;;;5082880;28;21013;-63
2021/05/28 18:03:46;;;;;;;3.50;1.23;;;;;;;;;;5080093;28;20230;-63
2021/05/28 18:06:12;;;;;;;0.00;0.00;;;;;;;;;;5080319;28;20154;-63
2021/05/28 18:08:39;;;;;;;5.73;2.83;;;;;;;;;;5079967;28;20268;-63
2021/05/28 18:11:05;;;;;;;0.00;0.00;;;;;;;;;;5080076;28;20158;-63
2021/05/28 18:13:32;;;;;;;0.00;0.00;;;;;;;;;;5080059;28;20162;-63
2021/05/28 18:15:58;;;;;;;5.63;0.63;;;;;;;;;;5079683;28;20193;-63
2021/05/28 18:18:26;;;;;;;3.10;1.63;;;;;;;;;;5079842;28;20286;-63
2021/05/28 18:20:52;;;;;;;0.40;0.20;;;;;;;;;;5080138;28;20281;-63
2021/05/28 18:23:19;;;;;;;0.73;0.73;;;;;;;;;;5079780;28;20205;-63
2021/05/28 18:25:46;;;;;;;0.57;0.57;;;;;;;;;;5079951;28;20162;-63
2021/05/28 18:28:18;;;;;;;0.43;0.30;;;;;;;;;;5078366;28;20162;-63
2021/05/28 18:30:44;;;;;;;0.43;0.43;;;;;;;;;;5080062;28;20166;-63
2021/05/28 18:33:12;;;;;;;3.80;1.17;;;;;;;;;;5079881;28;20189;-63
2021/05/28 18:35:39;;;;;;;0.50;0.10;;;;;;;;;;5079636;28;20754;-63
2021/05/28 18:38:06;;;;;;;2.43;1.00;;;;;;;;;;5079525;28;20266;-63
2021/05/28 18:40:35;;;;;;;0.00;0.00;;;;;;;;;;5081988;28;20202;-63
2021/05/28 18:43:03;;;;;;;0.30;0.30;;;;;;;;;;5079695;28;20829;-63
2021/05/28 18:45:29;;;;;;;0.10;0.10;;;;;;;;;;5079661;28;20265;-63
2021/05/28 18:47:56;;;;;;;0.00;0.00;;;;;;;;;;5079730;28;20891;-63
2021/05/28 18:50:24;;;;;;;1.07;0.20;;;;;;;;;;5079469;28;20165;-63
2021/05/28 18:52:51;;;;;;;4.53;1.43;;;;;;;;;;5079730;28;20180;-63
2021/05/28 18:55:19;;;;;;;0.43;0.43;;;;;;;;;;5080054;28;20162;-63
2021/05/28 18:57:46;;;;;;;0.00;0.00;;;;;;;;;;5082090;28;20171;-63
2021/05/28 19:00:17;;;;;;;0.70;0.60;;;;;;;;;;5079808;28;20235;-63
2021/05/28 19:02:44;;;;;;;1.70;1.60;;;;;;;;;;5079474;28;20225;-63
2021/05/28 19:05:12;;;;;;;0.00;0.00;;;;;;;;;;5079545;28;20185;-63
2021/05/28 19:07:38;;;;;;;0.20;0.20;;;;;;;;;;5079917;28;20159;-63
2021/05/28 19:10:07;;;;;;;0.10;0.10;;;;;;;;;;5079721;28;20232;-63
2021/05/28 19:12:33;;;;;;;1.93;1.83;;;;;;;;;;5077982;28;20231;-63
2021/05/28 19:15:01;;;;;;;1.00;0.43;;;;;;;;;;5079514;28;20186;-63
2021/05/28 19:17:28;;;;;;;7.07;0.60;;;;;;;;;;5079425;28;20176;-62
2021/05/28 19:19:56;;;;;;;1.13;0.60;;;;;;;;;;5079547;28;20165;-63
2021/05/28 19:22:23;;;;;;;0.97;0.77;;;;;;;;;;5082030;28;20170;-63
2021/05/28 19:24:49;;;;;;;1.13;0.50;;;;;;;;;;5079866;28;20223;-63
2021/05/28 19:27:16;;;;;;;5.97;1.10;;;;;;;;;;5081483;28;20167;-63
2021/05/28 19:29:43;;;;;;;0.17;0.17;;;;;;;;;;5079346;28;20167;-63
2021/05/28 19:32:10;;;;;;;2.37;2.00;;;;;;;;;;5079491;28;20245;-63
2021/05/28 19:34:36;;;;;;;0.40;0.20;;;;;;;;;;5079438;28;20159;-63
2021/05/28 19:37:04;;;;;;;6.87;3.73;;;;;;;;;;5082247;28;20169;-63
2021/05/28 19:39:31;;;;;;;0.33;0.20;;;;;;;;;;5079425;28;20245;-63
2021/05/28 19:41:57;;;;;;;13.13;1.30;;;;;;;;;;5079547;28;20265;-63
2021/05/28 19:44:24;;;;;;;2.77;0.80;;;;;;;;;;5079263;28;20190;-63
2021/05/28 19:46:51;;;;;;;5.03;0.50;;;;;;;;;;5079140;28;20162;-63
2021/05/28 19:49:17;;;;;;;3.20;1.10;;;;;;;;;;5081939;28;20183;-63
2021/05/28 19:51:44;;;;;;;0.27;0.27;;;;;;;;;;5083107;28;20253;-63
2021/05/28 19:56:37;;;;;;;0.77;0.77;;;;;;;;;;5082994;28;20163;-63
2021/05/28 19:59:04;;;;;;;2.47;0.83;;;;;;;;;;5083133;28;20536;-63
2021/05/28 20:01:34;;;;;;;1.83;0.60;;;;;;;;;;5085847;28;20169;-62
2021/05/28 20:04:01;;;;;;;3.17;1.10;;;;;;;;;;5082792;28;20233;-63
2021/05/28 20:06:27;;;;;;;0.27;0.27;;;;;;;;;;5083218;28;20182;-63
2021/05/28 20:08:54;;;;;;;1.27;1.17;;;;;;;;;;5082760;28;20169;-63
2021/05/28 20:16:36;;;;;;;0.10;0.10;;;;;;;;;;5083213;28;20193;-63
2021/05/28 20:19:05;;;;;;;0.40;0.40;;;;;;;;;;5082887;28;20184;-63
2021/05/28 20:21:32;;;;;;;8.30;0.87;;;;;;;;;;5082512;28;20165;-63
2021/05/28 20:24:01;;;;;;;0.37;0.10;;;;;;;;;;5081595;28;20210;-63
2021/05/28 20:26:28;;;;;;;2.80;0.77;;;;;;;;;;5082241;28;20253;-63
2021/05/28 20:28:55;;;;;;;9.53;0.87;;;;;;;;;;5081515;28;20169;-63
2021/05/28 20:31:22;;;;;;;0.00;0.00;;;;;;;;;;5081888;28;20192;-63
2021/05/28 20:33:49;;;;;;;19.43;0.43;;;;;;;;;;5081859;28;20267;-63
2021/05/28 20:36:16;;;;;;;0.77;0.20;;;;;;;;;;5081692;28;20172;-63
2021/05/28 20:38:42;;;;;;;0.00;0.00;;;;;;;;;;5082431;28;20168;-64
2021/05/28 20:41:09;;;;;;;0.50;0.50;;;;;;;;;;5082195;28;20220;-64
2021/05/28 20:43:35;;;;;;;0.20;0.20;;;;;;;;;;5082451;28;20197;-64
2021/05/28 20:46:03;;;;;;;1.53;0.37;;;;;;;;;;5082444;28;20164;-64
2021/05/28 20:48:30;;;;;;;5.60;0.30;;;;;;;;;;5084783;28;20167;-61
2021/05/28 20:51:00;;;;;;;1.60;1.47;;;;;;;;;;5081182;28;20281;-61
2021/05/28 20:53:29;;;;;;;2.93;2.83;;;;;;;;;;5082321;28;20225;-63
2021/05/28 20:55:58;;;;;;;0.93;0.93;;;;;;;;;;5082079;28;20168;-62
2021/05/28 20:58:25;;;;;;;0.00;0.00;;;;;;;;;;5082183;28;20533;-63
2021/05/28 21:00:52;;;;;;;0.00;0.00;;;;;;;;;;5084511;28;20911;-62
2021/05/28 21:03:23;;;;;;;1.37;1.23;;;;;;;;;;5081690;28;20717;-62
2021/05/28 21:05:49;;;;;;;0.20;0.20;;;;;;;;;;5081542;28;20259;-63
2021/05/28 21:08:16;;;;;;;0.00;0.00;;;;;;;;;;5082002;28;20279;-62
2021/05/28 21:10:42;;;;;;;0.00;0.00;;;;;;;;;;5078382;28;20165;-62
2021/05/28 21:13:09;;;;;;;0.00;0.00;;;;;;;;;;5075130;28;20174;-62
2021/05/28 21:15:37;;;;;;;9.80;1.87;;;;;;;;;;5079566;28;20181;-62
2021/05/28 21:18:05;;;;;;;0.00;0.00;;;;;;;;;;5070339;28;20176;-63
2021/05/28 21:20:32;;;;;;;2.73;2.00;;;;;;;;;;5073398;28;20188;-63
2021/05/28 21:22:59;;;;;;;0.00;0.00;;;;;;;;;;5077837;28;20199;-62
2021/05/28 21:25:26;;;;;;;0.00;0.00;;;;;;;;;;5076557;28;20166;-62
2021/05/28 21:27:53;;;;;;;0.00;0.00;;;;;;;;;;5078775;28;20172;-63
2021/05/28 21:30:20;;;;;;;0.00;0.00;;;;;;;;;;5075060;28;20985;-63
2021/05/28 21:32:46;;;;;;;0.00;0.00;;;;;;;;;;5076590;28;20814;-62
2021/05/28 21:35:14;;;;;;;0.00;0.00;;;;;;;;;;5076299;28;20190;-63
2021/05/28 21:37:41;;;;;;;0.00;0.00;;;;;;;;;;5078372;28;20192;-63
2021/05/28 21:40:10;;;;;;;0.00;0.00;;;;;;;;;;5078623;28;20185;-63
2021/05/28 21:42:38;;;;;;;0.00;0.00;;;;;;;;;;5080232;28;20199;-63
2021/05/28 21:45:05;;;;;;;0.00;0.00;;;;;;;;;;5079170;28;20193;-63
2021/05/28 21:47:32;;;;;;;0.00;0.00;;;;;;;;;;5078395;28;20747;-63
2021/05/28 21:49:58;;;;;;;0.10;0.00;;;;;;;;;;5085138;28;20953;-63
2021/05/28 21:52:25;;;;;;;0.00;0.00;;;;;;;;;;5079212;28;20210;-63
2021/05/28 21:54:52;;;;;;;0.87;0.87;;;;;;;;;;5079357;28;20196;-63
2021/05/28 21:57:18;;;;;;;0.00;0.00;;;;;;;;;;5085104;28;20184;-63
2021/05/28 21:59:46;;;;;;;0.00;0.00;;;;;;;;;;5062599;28;20194;-62
2021/05/28 22:02:13;;;;;;;0.00;0.00;;;;;;;;;;5066806;28;20604;-62
2021/05/28 22:04:39;;;;;;;0.00;0.00;;;;;;;;;;5074225;28;20256;-63
2021/05/28 22:07:06;;;;;;;1.70;1.50;;;;;;;;;;5077762;28;20368;-62
2021/05/28 22:09:33;;;;;;;0.00;0.00;;;;;;;;;;5082522;28;20188;-63
2021/05/28 22:12:00;;;;;;;0.00;0.00;;;;;;;;;;5078794;28;20848;-63
2021/05/28 22:14:28;;;;;;;0.00;0.00;;;;;;;;;;5079123;28;20188;-63
2021/05/28 22:16:55;;;;;;;0.00;0.00;;;;;;;;;;5075391;28;20189;-63
2021/05/28 22:19:22;;;;;;;0.10;0.10;;;;;;;;;;5073639;28;20186;-62
2021/05/28 22:21:49;;;;;;;0.00;0.00;;;;;;;;;;5072641;28;20189;-62
2021/05/28 22:24:15;;;;;;;0.10;0.10;;;;;;;;;;5074963;28;20287;-63
2021/05/28 22:27:01;;;;;;;0.70;0.10;;;;;;;;;;5064530;28;20258;-63
2021/05/28 22:34:39;;;;;;;5.53;5.30;;;;;;;;;;5073964;28;20224;-63
2021/05/28 22:37:06;;;;;;;0.40;0.40;;;;;;;;;;5078570;28;20546;-63
2021/05/28 22:39:34;;;;;;;0.00;0.00;;;;;;;;;;5073308;28;20172;-63
2021/05/28 22:42:00;;;;;;;0.00;0.00;;;;;;;;;;5071978;28;20185;-63
